createdAt,value
2022-11-21T00:01:08.000Z,277.9
2022-11-21T00:02:34.000Z,277.9
2022-11-21T00:04:40.000Z,277.9
2022-11-21T00:06:07.000Z,277.96
2022-11-21T00:08:13.000Z,277.9
2022-11-21T00:09:39.000Z,277.9
2022-11-21T00:11:45.000Z,277.9
2022-11-21T00:14:36.000Z,277.9
2022-11-21T00:16:03.000Z,277.9
2022-11-21T00:18:09.000Z,277.96
2022-11-21T00:19:35.000Z,277.9
2022-11-21T00:21:42.000Z,277.84
2022-11-21T00:23:08.000Z,277.84
2022-11-21T00:25:14.000Z,277.84
2022-11-21T00:26:41.000Z,277.84
2022-11-21T00:28:47.000Z,277.84
2022-11-21T00:30:13.000Z,277.9
2022-11-21T00:32:19.000Z,277.9
2022-11-21T00:33:46.000Z,277.84
2022-11-21T00:35:52.000Z,277.9
2022-11-21T00:37:18.000Z,277.9
2022-11-21T00:39:25.000Z,277.9
2022-11-21T00:40:51.000Z,277.9
2022-11-21T00:42:58.000Z,277.96
2022-11-21T00:44:24.000Z,278.02
2022-11-21T00:46:31.000Z,278.15
2022-11-21T00:47:57.000Z,278.02
2022-11-21T00:50:03.000Z,278.09
2022-11-21T00:52:54.000Z,278.09
2022-11-21T00:54:21.000Z,278.09
2022-11-21T00:56:27.000Z,278.09
2022-11-21T00:57:53.000Z,278.02
2022-11-21T00:59:59.000Z,278.02
2022-11-21T01:01:26.000Z,278.09
2022-11-21T01:03:32.000Z,278.09
2022-11-21T01:04:59.000Z,278.02
2022-11-21T01:07:05.000Z,278.02
2022-11-21T01:08:31.000Z,278.02
2022-11-21T01:10:37.000Z,278.09
2022-11-21T01:12:04.000Z,278.09
2022-11-21T01:14:10.000Z,278.09
2022-11-21T01:15:37.000Z,278.09
2022-11-21T01:17:43.000Z,278.09
2022-11-21T01:19:09.000Z,278.15
2022-11-21T01:21:15.000Z,278.15
2022-11-21T01:22:42.000Z,278.21
2022-11-21T01:24:48.000Z,278.15
2022-11-21T01:26:14.000Z,278.09
2022-11-21T01:28:21.000Z,278.09
2022-11-21T01:31:12.000Z,278.09
2022-11-21T01:32:38.000Z,278.02
2022-11-21T01:34:44.000Z,278.02
2022-11-21T01:36:11.000Z,278.02
2022-11-21T01:38:17.000Z,278.02
2022-11-21T01:39:43.000Z,278.02
2022-11-21T01:41:49.000Z,277.96
2022-11-21T01:43:16.000Z,277.96
2022-11-21T01:45:22.000Z,277.96
2022-11-21T01:46:49.000Z,278.02
2022-11-21T01:48:55.000Z,277.96
2022-11-21T01:50:21.000Z,277.96
2022-11-21T01:52:27.000Z,277.9
2022-11-21T01:53:54.000Z,277.96
2022-11-21T01:56:00.000Z,277.96
2022-11-21T01:57:26.000Z,277.96
2022-11-21T01:59:32.000Z,277.9
2022-11-21T02:00:59.000Z,277.96
2022-11-21T02:03:05.000Z,278.02
2022-11-21T02:04:32.000Z,278.02
2022-11-21T02:06:38.000Z,278.02
2022-11-21T02:09:29.000Z,277.96
2022-11-21T02:10:55.000Z,277.96
2022-11-21T02:13:01.000Z,277.96
2022-11-21T02:14:28.000Z,277.96
2022-11-21T02:16:34.000Z,277.9
2022-11-21T02:18:00.000Z,277.9
2022-11-21T02:20:07.000Z,277.9
2022-11-21T02:21:33.000Z,277.9
2022-11-21T02:23:39.000Z,277.9
2022-11-21T02:25:06.000Z,277.9
2022-11-21T02:27:12.000Z,277.9
2022-11-21T02:28:38.000Z,277.9
2022-11-21T02:30:44.000Z,277.9
2022-11-21T02:32:11.000Z,277.84
2022-11-21T02:34:17.000Z,277.84
2022-11-21T02:35:43.000Z,277.84
2022-11-21T02:37:49.000Z,277.77
2022-11-21T02:39:16.000Z,277.71
2022-11-21T02:41:22.000Z,277.77
2022-11-21T02:42:49.000Z,277.71
2022-11-21T02:44:57.000Z,277.77
2022-11-21T02:47:47.000Z,277.65
2022-11-21T02:49:14.000Z,277.71
2022-11-21T02:51:20.000Z,277.65
2022-11-21T02:52:47.000Z,277.59
2022-11-21T02:54:53.000Z,277.59
2022-11-21T02:56:19.000Z,277.59
2022-11-21T02:58:25.000Z,277.59
2022-11-21T02:59:52.000Z,277.52
2022-11-21T03:01:58.000Z,277.59
2022-11-21T03:03:25.000Z,277.52
2022-11-21T03:05:31.000Z,277.52
2022-11-21T03:06:57.000Z,277.52
2022-11-21T03:09:03.000Z,277.46
2022-11-21T03:10:30.000Z,277.46
2022-11-21T03:12:36.000Z,277.46
2022-11-21T03:14:03.000Z,277.4
2022-11-21T03:16:09.000Z,277.4
2022-11-21T03:17:35.000Z,277.4
2022-11-21T03:19:42.000Z,277.4
2022-11-21T03:21:08.000Z,277.34
2022-11-21T03:23:14.000Z,277.4
2022-11-21T03:26:05.000Z,277.34
2022-11-21T03:27:32.000Z,277.4
2022-11-21T03:29:38.000Z,277.4
2022-11-21T03:31:05.000Z,277.4
2022-11-21T03:33:11.000Z,277.4
2022-11-21T03:34:37.000Z,277.4
2022-11-21T03:36:43.000Z,277.46
2022-11-21T03:38:10.000Z,277.4
2022-11-21T03:40:16.000Z,277.46
2022-11-21T03:41:43.000Z,277.46
2022-11-21T03:43:49.000Z,277.52
2022-11-21T03:45:15.000Z,277.52
2022-11-21T03:47:21.000Z,277.52
2022-11-21T03:48:48.000Z,277.52
2022-11-21T03:50:54.000Z,277.52
2022-11-21T03:52:20.000Z,277.52
2022-11-21T03:54:27.000Z,277.59
2022-11-21T03:55:54.000Z,277.59
2022-11-21T03:58:00.000Z,277.59
2022-11-21T03:59:26.000Z,277.59
2022-11-21T04:01:32.000Z,277.52
2022-11-21T04:04:26.000Z,277.52
2022-11-21T04:05:53.000Z,277.52
2022-11-21T04:07:59.000Z,277.59
2022-11-21T04:09:25.000Z,277.52
2022-11-21T04:11:31.000Z,277.59
2022-11-21T04:12:58.000Z,277.59
2022-11-21T04:15:04.000Z,277.52
2022-11-21T04:16:38.000Z,277.59
2022-11-21T04:18:44.000Z,277.59
2022-11-21T04:20:10.000Z,277.59
2022-11-21T04:22:16.000Z,277.52
2022-11-21T04:23:43.000Z,277.52
2022-11-21T04:25:49.000Z,277.52
2022-11-21T04:27:15.000Z,277.52
2022-11-21T04:29:21.000Z,277.46
2022-11-21T04:30:48.000Z,277.46
2022-11-21T04:32:58.000Z,277.46
2022-11-21T04:34:25.000Z,277.46
2022-11-21T04:36:31.000Z,277.4
2022-11-21T04:37:58.000Z,277.46
2022-11-21T04:40:04.000Z,277.4
2022-11-21T04:42:55.000Z,277.4
2022-11-21T04:44:22.000Z,277.4
2022-11-21T04:46:28.000Z,277.4
2022-11-21T04:47:55.000Z,277.4
2022-11-21T04:50:01.000Z,277.4
2022-11-21T04:51:27.000Z,277.4
2022-11-21T04:53:33.000Z,277.34
2022-11-21T04:55:07.000Z,277.4
2022-11-21T04:57:13.000Z,277.34
2022-11-21T04:58:39.000Z,277.34
2022-11-21T05:00:45.000Z,277.34
2022-11-21T05:02:12.000Z,277.34
2022-11-21T05:04:18.000Z,277.27
2022-11-21T05:05:45.000Z,277.34
2022-11-21T05:07:51.000Z,277.27
2022-11-21T05:09:17.000Z,277.21
2022-11-21T05:11:23.000Z,277.21
2022-11-21T05:12:50.000Z,277.21
2022-11-21T05:14:56.000Z,277.15
2022-11-21T05:16:23.000Z,277.15
2022-11-21T05:18:29.000Z,277.09
2022-11-21T05:21:20.000Z,277.09
2022-11-21T05:22:46.000Z,277.09
2022-11-21T05:24:52.000Z,277.09
2022-11-21T05:26:19.000Z,277.09
2022-11-21T05:28:25.000Z,277.02
2022-11-21T05:29:52.000Z,277.02
2022-11-21T05:31:58.000Z,276.96
2022-11-21T05:33:24.000Z,276.96
2022-11-21T05:35:30.000Z,276.96
2022-11-21T05:36:57.000Z,276.9
2022-11-21T05:39:03.000Z,276.84
2022-11-21T05:40:29.000Z,276.9
2022-11-21T05:42:36.000Z,276.84
2022-11-21T05:44:02.000Z,276.9
2022-11-21T05:46:08.000Z,276.9
2022-11-21T05:47:35.000Z,276.9
2022-11-21T05:49:41.000Z,276.9
2022-11-21T05:51:07.000Z,276.9
2022-11-21T05:53:13.000Z,276.9
2022-11-21T05:54:40.000Z,276.9
2022-11-21T05:56:50.000Z,276.84
2022-11-21T05:59:41.000Z,276.84
2022-11-21T06:01:08.000Z,276.9
2022-11-21T06:03:14.000Z,276.84
2022-11-21T06:04:40.000Z,276.84
2022-11-21T06:06:47.000Z,276.9
2022-11-21T06:08:13.000Z,276.9
2022-11-21T06:10:19.000Z,276.9
2022-11-21T06:11:46.000Z,276.9
2022-11-21T06:13:52.000Z,276.84
2022-11-21T06:15:18.000Z,276.9
2022-11-21T06:17:24.000Z,276.84
2022-11-21T06:18:51.000Z,276.9
2022-11-21T06:21:02.000Z,276.9
2022-11-21T06:22:29.000Z,276.9
2022-11-21T06:24:35.000Z,276.84
2022-11-21T06:26:01.000Z,276.9
2022-11-21T06:28:08.000Z,276.84
2022-11-21T06:29:34.000Z,276.9
2022-11-21T06:31:40.000Z,276.9
2022-11-21T06:33:07.000Z,276.9
2022-11-21T06:35:13.000Z,276.96
2022-11-21T06:38:04.000Z,276.9
2022-11-21T06:39:31.000Z,276.84
2022-11-21T06:41:37.000Z,276.9
2022-11-21T06:43:03.000Z,276.9
2022-11-21T06:45:09.000Z,276.84
2022-11-21T06:46:36.000Z,276.84
2022-11-21T06:48:42.000Z,276.9
2022-11-21T06:50:08.000Z,276.9
2022-11-21T06:52:15.000Z,276.9
2022-11-21T06:53:41.000Z,276.9
2022-11-21T06:55:47.000Z,276.9
2022-11-21T06:57:14.000Z,276.9
2022-11-21T06:59:20.000Z,276.84
2022-11-21T07:00:46.000Z,276.9
2022-11-21T07:02:52.000Z,276.9
2022-11-21T07:04:27.000Z,276.9
2022-11-21T07:06:33.000Z,276.84
2022-11-21T07:08:00.000Z,276.84
2022-11-21T07:10:06.000Z,276.84
2022-11-21T07:11:32.000Z,276.84
2022-11-21T07:13:38.000Z,276.84
2022-11-21T07:16:30.000Z,276.9
2022-11-21T07:17:56.000Z,276.9
2022-11-21T07:20:02.000Z,276.84
2022-11-21T07:21:29.000Z,276.9
2022-11-21T07:23:35.000Z,276.9
2022-11-21T07:25:01.000Z,276.84
2022-11-21T07:27:07.000Z,276.9
2022-11-21T07:28:34.000Z,276.9
2022-11-21T07:30:40.000Z,276.9
2022-11-21T07:32:07.000Z,276.9
2022-11-21T07:34:13.000Z,276.9
2022-11-21T07:35:39.000Z,276.9
2022-11-21T07:37:45.000Z,276.9
2022-11-21T07:39:12.000Z,276.96
2022-11-21T07:41:18.000Z,276.9
2022-11-21T07:42:44.000Z,276.96
2022-11-21T07:44:51.000Z,276.96
2022-11-21T07:46:17.000Z,276.96
2022-11-21T07:48:23.000Z,276.96
2022-11-21T07:49:50.000Z,277.02
2022-11-21T07:51:56.000Z,277.02
2022-11-21T07:54:47.000Z,277.02
2022-11-21T07:56:14.000Z,277.09
2022-11-21T07:58:20.000Z,277.09
2022-11-21T07:59:46.000Z,277.09
2022-11-21T08:01:53.000Z,277.15
2022-11-21T08:03:19.000Z,277.15
2022-11-21T08:05:25.000Z,277.15
2022-11-21T08:06:52.000Z,277.21
2022-11-21T08:08:58.000Z,277.15
2022-11-21T08:10:25.000Z,277.15
2022-11-21T08:12:31.000Z,277.21
2022-11-21T08:13:57.000Z,277.27
2022-11-21T08:16:03.000Z,277.34
2022-11-21T08:17:30.000Z,277.34
2022-11-21T08:19:36.000Z,277.4
2022-11-21T08:21:03.000Z,277.4
2022-11-21T08:23:09.000Z,277.4
2022-11-21T08:24:35.000Z,277.34
2022-11-21T08:26:41.000Z,277.34
2022-11-21T08:28:08.000Z,277.4
2022-11-21T08:30:14.000Z,277.34
2022-11-21T08:33:05.000Z,277.34
2022-11-21T08:34:32.000Z,277.34
2022-11-21T08:36:38.000Z,277.34
2022-11-21T08:38:04.000Z,277.4
2022-11-21T08:40:10.000Z,277.4
2022-11-21T08:41:37.000Z,277.4
2022-11-21T08:43:43.000Z,277.46
2022-11-21T08:45:10.000Z,277.46
2022-11-21T08:47:16.000Z,277.52
2022-11-21T08:48:42.000Z,277.46
2022-11-21T08:50:48.000Z,277.52
2022-11-21T08:52:15.000Z,277.52
2022-11-21T08:54:21.000Z,277.52
2022-11-21T08:55:48.000Z,277.59
2022-11-21T08:57:54.000Z,277.59
2022-11-21T08:59:20.000Z,277.59
2022-11-21T09:01:26.000Z,277.59
2022-11-21T09:02:53.000Z,277.59
2022-11-21T09:04:59.000Z,277.65
2022-11-21T09:06:26.000Z,277.65
2022-11-21T09:08:32.000Z,277.65
2022-11-21T09:11:23.000Z,277.65
2022-11-21T09:12:49.000Z,277.65
2022-11-21T09:14:55.000Z,277.65
2022-11-21T09:16:22.000Z,277.71
2022-11-21T09:18:28.000Z,277.71
2022-11-21T09:19:55.000Z,277.77
2022-11-21T09:22:01.000Z,277.84
2022-11-21T09:23:27.000Z,277.84
2022-11-21T09:25:33.000Z,277.9
2022-11-21T09:27:00.000Z,277.9
2022-11-21T09:29:06.000Z,277.9
2022-11-21T09:30:32.000Z,277.9
2022-11-21T09:32:39.000Z,278.02
2022-11-21T09:34:05.000Z,278.09
2022-11-21T09:36:11.000Z,278.15
2022-11-21T09:37:38.000Z,278.15
2022-11-21T09:39:44.000Z,278.21
2022-11-21T09:41:11.000Z,278.21
2022-11-21T09:43:17.000Z,278.21
2022-11-21T09:44:43.000Z,278.27
2022-11-21T09:46:51.000Z,278.27
2022-11-21T09:49:42.000Z,278.4
2022-11-21T09:51:09.000Z,278.4
2022-11-21T09:53:15.000Z,278.4
2022-11-21T09:54:41.000Z,278.46
2022-11-21T09:56:48.000Z,278.46
2022-11-21T09:58:14.000Z,278.46
2022-11-21T10:00:20.000Z,278.46
2022-11-21T10:01:47.000Z,278.46
2022-11-21T10:03:53.000Z,278.52
2022-11-21T10:05:19.000Z,278.65
2022-11-21T10:07:25.000Z,278.65
2022-11-21T10:08:52.000Z,278.59
2022-11-21T10:10:58.000Z,278.52
2022-11-21T10:12:35.000Z,278.59
2022-11-21T10:14:41.000Z,278.65
2022-11-21T10:16:08.000Z,278.71
2022-11-21T10:18:14.000Z,278.71
2022-11-21T10:19:41.000Z,278.65
2022-11-21T10:21:47.000Z,278.71
2022-11-21T10:23:13.000Z,278.71
2022-11-21T10:25:19.000Z,278.71
2022-11-21T10:28:16.000Z,278.65
2022-11-21T10:29:42.000Z,278.71
2022-11-21T10:31:48.000Z,278.71
2022-11-21T10:33:15.000Z,278.65
2022-11-21T10:35:21.000Z,278.71
2022-11-21T10:36:47.000Z,278.71
2022-11-21T10:38:53.000Z,278.71
2022-11-21T10:40:20.000Z,278.71
2022-11-21T10:42:26.000Z,278.71
2022-11-21T10:43:53.000Z,278.77
2022-11-21T10:45:59.000Z,278.77
2022-11-21T10:47:25.000Z,278.77
2022-11-21T10:49:32.000Z,278.84
2022-11-21T10:50:58.000Z,278.84
2022-11-21T10:53:04.000Z,278.9
2022-11-21T10:54:31.000Z,278.9
2022-11-21T10:56:37.000Z,278.9
2022-11-21T10:58:03.000Z,278.96
2022-11-21T11:00:09.000Z,278.96
2022-11-21T11:01:36.000Z,279.02
2022-11-21T11:03:42.000Z,279.02
2022-11-21T11:07:02.000Z,279.09
2022-11-21T11:08:29.000Z,279.09
2022-11-21T11:10:35.000Z,279.15
2022-11-21T11:12:02.000Z,279.09
2022-11-21T11:14:08.000Z,279.09
2022-11-21T11:15:34.000Z,279.15
2022-11-21T11:17:40.000Z,279.09
2022-11-21T11:19:07.000Z,279.15
2022-11-21T11:21:13.000Z,279.15
2022-11-21T11:22:39.000Z,279.21
2022-11-21T11:24:46.000Z,279.21
2022-11-21T11:26:12.000Z,279.21
2022-11-21T11:28:18.000Z,279.21
2022-11-21T11:29:45.000Z,279.21
2022-11-21T11:31:51.000Z,279.15
2022-11-21T11:33:17.000Z,279.15
2022-11-21T11:35:23.000Z,279.15
2022-11-21T11:36:50.000Z,279.09
2022-11-21T11:38:56.000Z,279.02
2022-11-21T11:40:22.000Z,279.02
2022-11-21T11:42:29.000Z,278.9
2022-11-21T11:45:20.000Z,278.84
2022-11-21T11:46:46.000Z,278.9
2022-11-21T11:48:52.000Z,278.9
2022-11-21T11:50:44.000Z,278.9
2022-11-21T11:52:50.000Z,278.96
2022-11-21T11:54:17.000Z,278.96
2022-11-21T11:56:23.000Z,278.96
2022-11-21T11:57:49.000Z,278.96
2022-11-21T11:59:55.000Z,279.02
2022-11-21T12:01:22.000Z,279.02
2022-11-21T12:03:28.000Z,279.09
2022-11-21T12:04:55.000Z,279.15
2022-11-21T12:07:01.000Z,279.21
2022-11-21T12:10:03.000Z,279.27
2022-11-21T12:12:09.000Z,279.21
2022-11-21T12:13:36.000Z,279.27
2022-11-21T12:15:42.000Z,279.21
2022-11-21T12:17:09.000Z,279.21
2022-11-21T12:19:15.000Z,279.15
2022-11-21T12:20:41.000Z,279.15
2022-11-21T12:22:47.000Z,279.09
2022-11-21T12:25:39.000Z,279.02
2022-11-21T12:27:05.000Z,279.09
2022-11-21T12:29:11.000Z,279.09
2022-11-21T12:30:38.000Z,279.15
2022-11-21T12:32:44.000Z,279.15
2022-11-21T12:34:11.000Z,279.27
2022-11-21T12:36:17.000Z,279.27
2022-11-21T12:37:44.000Z,279.27
2022-11-21T12:39:51.000Z,279.21
2022-11-21T12:41:17.000Z,279.21
2022-11-21T12:43:23.000Z,279.15
2022-11-21T12:44:50.000Z,279.09
2022-11-21T12:46:56.000Z,279.15
2022-11-21T12:48:23.000Z,279.15
2022-11-21T12:50:29.000Z,279.15
2022-11-21T12:51:55.000Z,279.09
2022-11-21T12:54:01.000Z,279.02
2022-11-21T12:55:28.000Z,279.02
2022-11-21T12:57:39.000Z,278.9
2022-11-21T12:59:06.000Z,278.9
2022-11-21T13:01:12.000Z,278.84
2022-11-21T13:04:10.000Z,278.77
2022-11-21T13:05:36.000Z,278.77
2022-11-21T13:07:42.000Z,278.71
2022-11-21T13:09:09.000Z,278.77
2022-11-21T13:11:15.000Z,278.77
2022-11-21T13:12:42.000Z,278.77
2022-11-21T13:14:48.000Z,278.77
2022-11-21T13:16:14.000Z,278.84
2022-11-21T13:18:20.000Z,278.9
2022-11-21T13:19:47.000Z,278.96
2022-11-21T13:21:53.000Z,279.02
2022-11-21T13:23:19.000Z,279.02
2022-11-21T13:25:25.000Z,279.09
2022-11-21T13:26:52.000Z,279.02
2022-11-21T13:28:58.000Z,279.02
2022-11-21T13:30:25.000Z,279.02
2022-11-21T13:32:31.000Z,279.02
2022-11-21T13:33:57.000Z,279.02
2022-11-21T13:36:03.000Z,279.02
2022-11-21T13:37:30.000Z,279.02
2022-11-21T13:39:36.000Z,278.96
2022-11-21T13:42:27.000Z,278.96
2022-11-21T13:43:53.000Z,278.96
2022-11-21T13:46:00.000Z,278.96
2022-11-21T13:47:26.000Z,279.02
2022-11-21T13:49:32.000Z,278.96
2022-11-21T13:50:59.000Z,279.02
2022-11-21T13:53:05.000Z,278.96
2022-11-21T13:54:31.000Z,278.96
2022-11-21T13:56:37.000Z,278.96
2022-11-21T13:58:04.000Z,278.9
2022-11-21T14:00:10.000Z,278.9
2022-11-21T14:01:44.000Z,278.84
2022-11-21T14:03:50.000Z,278.84
2022-11-21T14:05:16.000Z,278.84
2022-11-21T14:07:22.000Z,278.84
2022-11-21T14:08:49.000Z,278.84
2022-11-21T14:10:55.000Z,278.77
2022-11-21T14:12:22.000Z,278.77
2022-11-21T14:14:37.000Z,278.77
2022-11-21T14:16:03.000Z,278.77
2022-11-21T14:18:09.000Z,278.77
2022-11-21T14:21:00.000Z,278.77
2022-11-21T14:22:27.000Z,278.77
2022-11-21T14:24:40.000Z,278.77
2022-11-21T14:26:06.000Z,278.71
2022-11-21T14:28:12.000Z,278.71
2022-11-21T14:29:39.000Z,278.71
2022-11-21T14:31:45.000Z,278.65
2022-11-21T14:33:12.000Z,278.65
2022-11-21T14:35:18.000Z,278.65
2022-11-21T14:36:44.000Z,278.59
2022-11-21T14:38:50.000Z,278.59
2022-11-21T14:40:53.000Z,278.59
2022-11-21T14:42:59.000Z,278.59
2022-11-21T14:44:26.000Z,278.59
2022-11-21T14:46:33.000Z,278.59
2022-11-21T14:47:59.000Z,278.59
2022-11-21T14:50:06.000Z,278.52
2022-11-21T14:51:32.000Z,278.52
2022-11-21T14:53:38.000Z,278.46
2022-11-21T14:55:05.000Z,278.46
2022-11-21T14:57:35.000Z,278.4
2022-11-21T15:00:26.000Z,278.4
2022-11-21T15:02:24.000Z,278.34
2022-11-21T15:04:30.000Z,278.34
2022-11-21T15:05:57.000Z,278.27
2022-11-21T15:08:10.000Z,278.27
2022-11-21T15:10:15.000Z,278.34
2022-11-21T15:12:38.000Z,278.27
2022-11-21T15:14:10.000Z,278.27
2022-11-21T15:16:20.000Z,278.27
2022-11-21T15:17:47.000Z,278.27
2022-11-21T15:20:30.000Z,278.21
2022-11-21T15:21:56.000Z,278.21
2022-11-21T15:24:03.000Z,278.21
2022-11-21T15:25:29.000Z,278.21
2022-11-21T15:27:35.000Z,278.21
2022-11-21T15:29:02.000Z,278.21
2022-11-21T15:31:08.000Z,278.15
2022-11-21T15:32:36.000Z,278.15
2022-11-21T15:34:42.000Z,278.15
2022-11-21T15:36:08.000Z,278.09
2022-11-21T15:38:14.000Z,278.09
2022-11-21T15:41:05.000Z,277.96
2022-11-21T15:42:32.000Z,277.96
2022-11-21T15:44:38.000Z,277.96
2022-11-21T15:46:04.000Z,277.9
2022-11-21T15:48:11.000Z,277.84
2022-11-21T15:49:37.000Z,277.84
2022-11-21T15:51:43.000Z,277.77
2022-11-21T15:53:33.000Z,277.71
2022-11-21T15:55:39.000Z,277.71
2022-11-21T15:57:06.000Z,277.65
2022-11-21T15:59:12.000Z,277.59
2022-11-21T16:00:38.000Z,277.59
2022-11-21T16:02:44.000Z,277.52
2022-11-21T16:04:12.000Z,277.46
2022-11-21T16:06:18.000Z,277.4
2022-11-21T16:07:44.000Z,277.34
2022-11-21T16:09:52.000Z,277.27
2022-11-21T16:11:19.000Z,277.21
2022-11-21T16:13:25.000Z,277.15
2022-11-21T16:14:52.000Z,277.09
2022-11-21T16:16:58.000Z,276.96
2022-11-21T16:19:49.000Z,276.77
2022-11-21T16:21:16.000Z,276.71
2022-11-21T16:23:22.000Z,276.59
2022-11-21T16:24:48.000Z,276.52
2022-11-21T16:26:54.000Z,276.34
2022-11-21T16:28:21.000Z,276.34
2022-11-21T16:30:27.000Z,276.34
2022-11-21T16:31:54.000Z,276.34
2022-11-21T16:34:00.000Z,276.15
2022-11-21T16:35:26.000Z,276.21
2022-11-21T16:37:32.000Z,276.21
2022-11-21T16:38:59.000Z,276.21
2022-11-21T16:41:13.000Z,276.21
2022-11-21T16:42:39.000Z,276.27
2022-11-21T16:44:45.000Z,276.15
2022-11-21T16:46:12.000Z,276.15
2022-11-21T16:48:18.000Z,276.09
2022-11-21T16:49:45.000Z,276.09
2022-11-21T16:51:52.000Z,276.15
2022-11-21T16:53:19.000Z,276.21
2022-11-21T16:55:25.000Z,276.09
2022-11-21T16:58:16.000Z,275.9
2022-11-21T16:59:43.000Z,275.96
2022-11-21T17:01:49.000Z,275.9
2022-11-21T17:03:15.000Z,275.9
2022-11-21T17:05:21.000Z,275.77
2022-11-21T17:06:48.000Z,275.65
2022-11-21T17:08:54.000Z,275.59
2022-11-21T17:10:21.000Z,275.52
2022-11-21T17:12:27.000Z,275.4
2022-11-21T17:13:53.000Z,275.34
2022-11-21T17:15:59.000Z,275.27
2022-11-21T17:17:26.000Z,275.27
2022-11-21T17:19:32.000Z,275.46
2022-11-21T17:20:58.000Z,275.46
2022-11-21T17:23:04.000Z,275.4
2022-11-21T17:24:31.000Z,275.27
2022-11-21T17:26:37.000Z,275.15
2022-11-21T17:28:04.000Z,275.15
2022-11-21T17:30:10.000Z,275.09
2022-11-21T17:31:36.000Z,275.09
2022-11-21T17:33:42.000Z,275.09
2022-11-21T17:36:33.000Z,275.02
2022-11-21T17:38:00.000Z,275.09
2022-11-21T17:40:06.000Z,275.15
2022-11-21T17:41:33.000Z,275.09
2022-11-21T17:43:39.000Z,274.9
2022-11-21T17:45:05.000Z,274.84
2022-11-21T17:47:11.000Z,274.77
2022-11-21T17:48:38.000Z,274.84
2022-11-21T17:50:44.000Z,274.77
2022-11-21T17:52:10.000Z,274.71
2022-11-21T17:54:16.000Z,274.59
2022-11-21T17:55:43.000Z,274.52
2022-11-21T17:57:49.000Z,274.46
2022-11-21T17:59:16.000Z,274.46
2022-11-21T18:01:22.000Z,274.46
2022-11-21T18:02:49.000Z,274.4
2022-11-21T18:04:55.000Z,274.4
2022-11-21T18:06:21.000Z,274.46
2022-11-21T18:08:27.000Z,274.4
2022-11-21T18:09:54.000Z,274.27
2022-11-21T18:12:31.000Z,274.27
2022-11-21T18:15:23.000Z,274.27
2022-11-21T18:16:49.000Z,274.27
2022-11-21T18:18:57.000Z,274.34
2022-11-21T18:20:24.000Z,274.34
2022-11-21T18:22:30.000Z,274.21
2022-11-21T18:23:56.000Z,274.21
2022-11-21T18:26:02.000Z,274.15
2022-11-21T18:27:29.000Z,274.15
2022-11-21T18:29:35.000Z,274.09
2022-11-21T18:31:02.000Z,274.09
2022-11-21T18:33:08.000Z,274.09
2022-11-21T18:34:41.000Z,274.09
2022-11-21T18:36:48.000Z,274.09
2022-11-21T18:38:14.000Z,274.09
2022-11-21T18:40:51.000Z,274.02
2022-11-21T18:42:18.000Z,273.96
2022-11-21T18:44:24.000Z,274.02
2022-11-21T18:45:51.000Z,274.02
2022-11-21T18:47:57.000Z,274.02
2022-11-21T18:49:23.000Z,274.09
2022-11-21T18:51:29.000Z,273.96
2022-11-21T18:54:21.000Z,274.02
2022-11-21T18:55:47.000Z,274.09
2022-11-21T18:57:53.000Z,274.09
2022-11-21T18:59:20.000Z,274.15
2022-11-21T19:01:26.000Z,274.09
2022-11-21T19:02:53.000Z,274.15
2022-11-21T19:04:59.000Z,274.09
2022-11-21T19:06:25.000Z,274.15
2022-11-21T19:08:32.000Z,274.15
2022-11-21T19:09:58.000Z,274.21
2022-11-21T19:12:45.000Z,274.15
2022-11-21T19:14:11.000Z,274.21
2022-11-21T19:16:17.000Z,274.21
2022-11-21T19:17:44.000Z,274.21
2022-11-21T19:19:50.000Z,274.27
2022-11-21T19:21:17.000Z,274.27
2022-11-21T19:23:23.000Z,274.21
2022-11-21T19:24:50.000Z,274.27
2022-11-21T19:26:56.000Z,274.27
2022-11-21T19:28:22.000Z,274.27
2022-11-21T19:30:28.000Z,274.27
2022-11-21T19:33:19.000Z,274.34
2022-11-21T19:34:46.000Z,274.4
2022-11-21T19:36:52.000Z,274.34
2022-11-21T19:38:18.000Z,274.34
2022-11-21T19:40:25.000Z,274.4
2022-11-21T19:41:51.000Z,274.4
2022-11-21T19:43:57.000Z,274.4
2022-11-21T19:45:24.000Z,274.4
2022-11-21T19:47:30.000Z,274.52
2022-11-21T19:48:56.000Z,274.52
2022-11-21T19:51:02.000Z,274.52
2022-11-21T19:52:29.000Z,274.59
2022-11-21T19:54:35.000Z,274.65
2022-11-21T19:56:02.000Z,274.65
2022-11-21T19:58:08.000Z,274.59
2022-11-21T19:59:34.000Z,274.59
2022-11-21T20:01:41.000Z,274.59
2022-11-21T20:03:14.000Z,274.59
2022-11-21T20:05:20.000Z,274.59
2022-11-21T20:06:46.000Z,274.59
2022-11-21T20:08:52.000Z,274.59
2022-11-21T20:11:43.000Z,274.52
2022-11-21T20:13:10.000Z,274.52
2022-11-21T20:15:16.000Z,274.46
2022-11-21T20:16:43.000Z,274.46
2022-11-21T20:18:49.000Z,274.4
2022-11-21T20:20:15.000Z,274.4
2022-11-21T20:22:21.000Z,274.4
2022-11-21T20:23:48.000Z,274.4
2022-11-21T20:25:54.000Z,274.46
2022-11-21T20:27:20.000Z,274.46
2022-11-21T20:29:27.000Z,274.52
2022-11-21T20:30:54.000Z,274.59
2022-11-21T20:33:00.000Z,274.59
2022-11-21T20:34:32.000Z,274.65
2022-11-21T20:36:38.000Z,274.71
2022-11-21T20:38:05.000Z,274.77
2022-11-21T20:40:11.000Z,274.9
2022-11-21T20:41:38.000Z,274.96
2022-11-21T20:43:44.000Z,274.96
2022-11-21T20:46:08.000Z,275.02
2022-11-21T20:48:22.000Z,275.02
2022-11-21T20:55:46.000Z,275.09
2022-11-21T20:57:12.000Z,275.09
2022-11-21T20:59:19.000Z,275.02
2022-11-21T21:00:46.000Z,275.02
2022-11-21T21:02:52.000Z,275.02
2022-11-21T21:04:18.000Z,275.09
2022-11-21T21:06:25.000Z,275.02
2022-11-21T21:07:51.000Z,275.02
2022-11-21T21:09:57.000Z,275.02
2022-11-21T21:11:24.000Z,275.09
2022-11-21T21:13:55.000Z,275.02
2022-11-21T21:15:22.000Z,275.02
2022-11-21T21:17:28.000Z,275.02
2022-11-21T21:18:55.000Z,275.09
2022-11-21T21:21:01.000Z,275.09
2022-11-21T21:22:41.000Z,275.09
2022-11-21T21:24:47.000Z,275.09
2022-11-21T21:26:14.000Z,275.15
2022-11-21T21:28:20.000Z,275.21
2022-11-21T21:31:11.000Z,275.15
2022-11-21T21:32:38.000Z,275.21
2022-11-21T21:34:44.000Z,275.21
2022-11-21T21:36:11.000Z,275.21
2022-11-21T21:38:17.000Z,275.21
2022-11-21T21:39:43.000Z,275.21
2022-11-21T21:41:49.000Z,275.21
2022-11-21T21:43:16.000Z,275.21
2022-11-21T21:45:22.000Z,275.21
2022-11-21T21:46:48.000Z,275.21
2022-11-21T21:48:55.000Z,275.21
2022-11-21T21:50:21.000Z,275.21
2022-11-21T21:52:27.000Z,275.21
2022-11-21T21:53:54.000Z,275.27
2022-11-21T21:56:00.000Z,275.27
2022-11-21T21:57:27.000Z,275.21
2022-11-21T21:59:33.000Z,275.21
2022-11-21T22:00:59.000Z,275.27
2022-11-21T22:03:05.000Z,275.27
2022-11-21T22:04:32.000Z,275.27
2022-11-21T22:06:38.000Z,275.27
2022-11-21T22:09:29.000Z,275.27
2022-11-21T22:10:56.000Z,275.34
2022-11-21T22:13:02.000Z,275.27
2022-11-21T22:14:29.000Z,275.34
2022-11-21T22:16:35.000Z,275.34
2022-11-21T22:18:02.000Z,275.34
2022-11-21T22:20:08.000Z,275.34
2022-11-21T22:21:34.000Z,275.4
2022-11-21T22:23:40.000Z,275.4
2022-11-21T22:25:34.000Z,275.46
2022-11-21T22:27:40.000Z,275.46
2022-11-21T22:29:06.000Z,275.46
2022-11-21T22:31:12.000Z,275.46
2022-11-21T22:32:39.000Z,275.46
2022-11-21T22:34:45.000Z,275.4
2022-11-21T22:36:12.000Z,275.46
2022-11-21T22:38:18.000Z,275.46
2022-11-21T22:39:44.000Z,275.46
2022-11-21T22:41:51.000Z,275.46
2022-11-21T22:43:24.000Z,275.52
2022-11-21T22:45:30.000Z,275.52
2022-11-21T22:48:21.000Z,275.52
2022-11-21T22:49:47.000Z,275.52
2022-11-21T22:51:53.000Z,275.52
2022-11-21T22:53:20.000Z,275.59
2022-11-21T22:55:26.000Z,275.59
2022-11-21T22:56:53.000Z,275.59
2022-11-21T22:58:59.000Z,275.59
2022-11-21T23:00:25.000Z,275.59
2022-11-21T23:02:31.000Z,275.59
2022-11-21T23:03:58.000Z,275.59
2022-11-21T23:06:04.000Z,275.59
2022-11-21T23:07:31.000Z,275.59
2022-11-21T23:09:37.000Z,275.59
2022-11-21T23:11:03.000Z,275.65